Time;durP1;ratioP1;P1;durP2;ratioP2;P2;SDS_P1;SDS_P2;PMS_P1;PMS_P2;Temp;Humidity;BMP_temperature;BMP_pressure;BME280_temperature;BME280_humidity;BME280_pressure;Samples;Min_cycle;Max_cycle;Signal;HPM_P1;HPM_P2
2022/09/09 00:00:14;;;;;;;;;;;;;;;22.99;57.95;100382.63;2249726;77;50468;-76
2022/09/09 00:03:17;;;;;;;;;;;;;;;23.00;57.77;100378.37;2245275;77;51538;-76
2022/09/09 00:06:22;;;;;;;;;;;;;;;23.01;57.58;100379.19;2274679;76;51533;-76
2022/09/09 00:09:25;;;;;;;;;;;;;;;22.99;57.56;100378.58;2268967;77;50075;-76
2022/09/09 00:12:31;;;;;;;;;;;;;;;23.00;57.46;100372.15;2301233;77;50356;-76
2022/09/09 00:15:51;;;;;;;;;;;;;;;23.01;57.47;100380.53;2302046;76;51519;-77
2022/09/09 00:19:03;;;;;;;;;;;;;;;23.00;57.46;100379.72;2278571;77;50270;-76
2022/09/09 00:22:07;;;;;;;;;;;;;;;23.00;57.44;100378.37;2210433;79;52590;-77
2022/09/09 00:25:13;;;;;;;;;;;;;;;22.99;57.45;100375.87;2247510;78;50226;-77
2022/09/09 00:28:16;;;;;;;;;;;;;;;22.99;57.51;100369.13;2248673;79;50742;-77
2022/09/09 00:31:19;;;;;;;;;;;;;;;22.99;57.38;100368.63;2248333;79;51527;-76
2022/09/09 00:34:22;;;;;;;;;;;;;;;22.99;57.26;100371.83;2218559;78;49602;-76
2022/09/09 00:37:25;;;;;;;;;;;;;;;22.98;57.24;100364.79;2241922;79;51508;-76
2022/09/09 00:40:33;;;;;;;;;;;;;;;22.97;57.16;100359.10;2248578;78;51574;-76
2022/09/09 00:43:38;;;;;;;;;;;;;;;22.96;57.23;100369.02;2248432;78;51604;-76
2022/09/09 00:46:41;;;;;;;;;;;;;;;22.94;57.40;100363.03;2223519;78;50992;-76
2022/09/09 00:50:02;;;;;;;;;;;;;;;22.95;57.28;100362.50;2248641;79;50337;-76
2022/09/09 00:53:08;;;;;;;;;;;;;;;22.93;57.37;100358.66;2248519;79;51396;-76
2022/09/09 00:56:14;;;;;;;;;;;;;;;22.93;57.33;100359.19;2251249;77;51418;-77
2022/09/09 00:59:18;;;;;;;;;;;;;;;22.94;57.31;100366.23;2268613;77;50110;-76
2022/09/09 01:02:21;;;;;;;;;;;;;;;22.93;57.31;100361.89;2294903;77;51470;-76
2022/09/09 01:05:25;;;;;;;;;;;;;;;22.93;57.21;100364.59;2294753;76;51439;-75
2022/09/09 01:08:34;;;;;;;;;;;;;;;22.92;57.20;100358.90;2294542;77;51528;-76
2022/09/09 01:11:40;;;;;;;;;;;;;;;22.91;57.17;100366.14;2238589;77;50929;-75
2022/09/09 01:14:48;;;;;;;;;;;;;;;22.92;57.17;100371.05;2294610;76;50120;-75
2022/09/09 01:18:04;;;;;;;;;;;;;;;22.92;57.44;100379.14;2294918;77;50705;-75
2022/09/09 01:21:19;;;;;;;;;;;;;;;22.91;57.48;100370.72;2294868;77;51526;-76
2022/09/09 01:24:26;;;;;;;;;;;;;;;22.92;57.49;100376.44;2270399;76;50975;-75
2022/09/09 01:27:27;;;;;;;;;;;;;;;22.92;57.46;100372.39;2265788;77;50783;-75
2022/09/09 01:30:29;;;;;;;;;;;;;;;22.90;57.46;100371.78;2256734;79;50573;-75
2022/09/09 01:33:31;;;;;;;;;;;;;;;22.91;57.35;100372.06;2256582;77;51493;-75
2022/09/09 01:36:40;;;;;;;;;;;;;;;22.90;57.23;100373.13;2233784;79;50154;-76
2022/09/09 01:39:42;;;;;;;;;;;;;;;22.91;57.20;100373.42;2220290;80;50789;-75
2022/09/09 01:42:43;;;;;;;;;;;;;;;22.91;57.43;100366.67;2220535;79;50380;-75
2022/09/09 01:45:45;;;;;;;;;;;;;;;22.91;57.33;100369.37;2220134;79;50385;-75
2022/09/09 01:48:46;;;;;;;;;;;;;;;22.92;57.33;100365.64;2196500;80;49511;-75
2022/09/09 01:51:50;;;;;;;;;;;;;;;22.93;57.37;100365.94;2220415;80;50699;-77
2022/09/09 01:54:51;;;;;;;;;;;;;;;22.93;57.29;100361.89;2218058;79;50771;-75
2022/09/09 01:58:11;;;;;;;;;;;;;;;22.92;57.39;100368.34;2213771;79;51533;-75
2022/09/09 02:01:23;;;;;;;;;;;;;;;22.93;57.23;100367.28;2209098;80;50394;-76
2022/09/09 02:04:28;;;;;;;;;;;;;;;22.92;57.27;100362.95;2208691;79;50584;-75
2022/09/09 02:07:37;;;;;;;;;;;;;;;22.93;57.19;100371.33;2209220;80;51642;-75
2022/09/09 02:10:53;;;;;;;;;;;;;;;22.90;57.18;100371.25;2208961;79;50798;-75
2022/09/09 02:13:56;;;;;;;;;;;;;;;22.90;57.22;100372.59;2185136;79;51433;-75
2022/09/09 02:16:59;;;;;;;;;;;;;;;22.91;57.21;100385.55;2231597;79;50289;-75
2022/09/09 02:20:02;;;;;;;;;;;;;;;22.91;57.18;100377.47;2248452;79;50731;-75
2022/09/09 02:23:03;;;;;;;;;;;;;;;22.90;57.17;100375.30;2248417;79;49527;-75
2022/09/09 02:26:05;;;;;;;;;;;;;;;22.90;57.20;100374.47;2231753;77;50930;-76
2022/09/09 02:29:08;;;;;;;;;;;;;;;22.87;57.67;100377.09;2278451;78;51480;-76
2022/09/09 02:32:12;;;;;;;;;;;;;;;22.87;57.55;100373.56;2286595;78;50195;-76
2022/09/09 02:35:14;;;;;;;;;;;;;;;22.87;57.50;100369.52;2273931;76;51624;-76
2022/09/09 02:38:16;;;;;;;;;;;;;;;22.88;57.44;100375.20;2260953;78;50215;-76
2022/09/09 02:41:21;;;;;;;;;;;;;;;22.87;57.25;100377.09;2286576;77;51451;-76
2022/09/09 02:44:23;;;;;;;;;;;;;;;22.87;57.42;100374.92;2286422;76;50282;-76
2022/09/09 02:47:36;;;;;;;;;;;;;;;22.88;57.24;100367.12;2286604;77;50274;-76
2022/09/09 02:50:42;;;;;;;;;;;;;;;22.87;57.31;100366.82;2260160;78;50098;-77
2022/09/09 02:53:50;;;;;;;;;;;;;;;22.88;57.16;100365.77;2286733;76;23666;-76
2022/09/09 02:56:54;;;;;;;;;;;;;;;22.89;57.29;100367.41;2280205;77;51473;-76
2022/09/09 02:59:57;;;;;;;;;;;;;;;22.88;57.40;100373.86;2260198;77;51533;-75
2022/09/09 03:02:59;;;;;;;;;;;;;;;22.86;57.55;100375.41;2236971;78;51013;-75
2022/09/09 03:06:00;;;;;;;;;;;;;;;22.83;57.63;100379.91;2259730;77;51449;-75
2022/09/09 03:09:02;;;;;;;;;;;;;;;22.84;57.56;100377.53;2259929;77;50281;-75
2022/09/09 03:12:04;;;;;;;;;;;;;;;22.83;57.67;100379.37;2259869;78;51506;-75
2022/09/09 03:15:06;;;;;;;;;;;;;;;22.83;57.61;100386.64;2225029;78;49544;-76
2022/09/09 03:18:08;;;;;;;;;;;;;;;22.82;57.54;100387.17;2247781;79;50354;-75
2022/09/09 03:21:10;;;;;;;;;;;;;;;22.81;57.60;100389.58;2247724;79;50024;-75
2022/09/09 03:24:12;;;;;;;;;;;;;;;22.81;57.59;100387.38;2247621;78;51468;-76
2022/09/09 03:27:17;;;;;;;;;;;;;;;22.81;57.62;100400.87;2241560;78;50900;-76
2022/09/09 03:30:19;;;;;;;;;;;;;;;22.78;57.55;100392.69;2257242;79;51483;-76
2022/09/09 03:33:20;;;;;;;;;;;;;;;22.78;57.34;100398.61;2257165;78;51350;-75
2022/09/09 03:36:22;;;;;;;;;;;;;;;22.77;57.50;100396.97;2256981;77;51484;-75
2022/09/09 03:39:23;;;;;;;;;;;;;;;22.76;57.66;100394.80;2232836;79;52270;-75
2022/09/09 03:42:25;;;;;;;;;;;;;;;22.78;57.50;100397.26;2257086;78;51355;-75
2022/09/09 03:45:27;;;;;;;;;;;;;;;22.77;57.48;100387.00;2256681;77;50309;-75
2022/09/09 03:48:28;;;;;;;;;;;;;;;22.78;57.36;100389.99;2256833;78;50362;-75
2022/09/09 03:51:30;;;;;;;;;;;;;;;22.77;57.63;100396.44;2232451;79;52499;-75
2022/09/09 03:54:31;;;;;;;;;;;;;;;22.77;57.58;100396.44;2255894;77;50202;-75
2022/09/09 03:57:35;;;;;;;;;;;;;;;22.79;57.31;100399.75;2245648;77;50314;-75
2022/09/09 04:00:44;;;;;;;;;;;;;;;22.77;57.35;100397.79;2294818;77;50243;-75
2022/09/09 04:03:40;;;;;;;;;;;;;;;22.75;57.56;100395.83;2269021;76;22374;-76
2022/09/09 04:06:42;;;;;;;;;;;;;;;22.74;57.55;100391.48;2251383;77;50731;-76
2022/09/09 04:09:43;;;;;;;;;;;;;;;22.74;57.56;100388.79;2279578;76;51498;-76
2022/09/09 04:12:45;;;;;;;;;;;;;;;22.76;57.55;100392.59;2286880;78;51477;-76
2022/09/09 04:15:57;;;;;;;;;;;;;;;22.75;57.48;100383.69;2259198;78;50702;-76
2022/09/09 04:18:59;;;;;;;;;;;;;;;22.76;57.44;100391.25;2249288;78;50935;-76
2022/09/09 04:22:01;;;;;;;;;;;;;;;22.76;57.21;100388.05;2245696;79;50813;-76
2022/09/09 04:25:03;;;;;;;;;;;;;;;22.74;57.45;100388.79;2273207;76;50509;-75
2022/09/09 04:28:04;;;;;;;;;;;;;;;22.73;57.34;100400.60;2232198;79;50288;-76
2022/09/09 04:31:10;;;;;;;;;;;;;;;22.74;57.46;100400.92;2186926;80;51869;-75
2022/09/09 04:34:12;;;;;;;;;;;;;;;22.74;57.55;100398.23;2186906;79;51526;-75
2022/09/09 04:37:14;;;;;;;;;;;;;;;22.75;57.46;100407.97;2211371;80;51392;-75
2022/09/09 04:40:15;;;;;;;;;;;;;;;22.75;57.51;100406.61;2186823;80;50327;-76
2022/09/09 04:43:17;;;;;;;;;;;;;;;22.75;57.56;100409.31;2186823;80;50963;-75
2022/09/09 04:46:20;;;;;;;;;;;;;;;22.73;57.87;100413.27;2187075;80;50645;-75
2022/09/09 04:49:21;;;;;;;;;;;;;;;22.71;57.81;100414.85;2227297;79;50276;-76
2022/09/09 04:52:23;;;;;;;;;;;;;;;22.73;57.71;100414.09;2268063;78;50132;-74
2022/09/09 04:55:24;;;;;;;;;;;;;;;22.73;57.71;100419.48;2232703;78;51723;-74
2022/09/09 04:58:26;;;;;;;;;;;;;;;22.75;57.39;100426.84;2236489;78;51508;-75
2022/09/09 05:01:28;;;;;;;;;;;;;;;22.75;57.39;100426.84;2254860;78;50240;-76
2022/09/09 05:04:29;;;;;;;;;;;;;;;22.73;57.51;100427.58;2210703;79;50681;-75
2022/09/09 05:07:31;;;;;;;;;;;;;;;22.75;57.28;100424.67;2249395;79;51496;-75
2022/09/09 05:10:33;;;;;;;;;;;;;;;22.77;57.20;100427.98;2248514;77;50561;-75
2022/09/09 05:13:35;;;;;;;;;;;;;;;22.77;57.14;100431.51;2254615;77;50366;-75
2022/09/09 05:16:36;;;;;;;;;;;;;;;22.73;57.50;100431.62;2257158;79;50333;-75
2022/09/09 05:19:38;;;;;;;;;;;;;;;22.75;57.26;100429.54;2244028;78;50691;-75
2022/09/09 05:22:40;;;;;;;;;;;;;;;22.76;57.18;100437.95;2243643;79;50710;-75
2022/09/09 05:25:42;;;;;;;;;;;;;;;22.75;57.23;100426.84;2248359;79;50264;-75
2022/09/09 05:28:43;;;;;;;;;;;;;;;22.77;57.15;100428.81;2248583;79;51539;-76
2022/09/09 05:31:46;;;;;;;;;;;;;;;22.76;57.83;100432.56;2247940;79;50358;-76
2022/09/09 05:34:48;;;;;;;;;;;;;;;22.76;57.26;100424.47;2247633;79;50187;-76
2022/09/09 05:37:49;;;;;;;;;;;;;;;22.85;56.57;100431.77;2248428;79;50703;-77
2022/09/09 05:40:52;;;;;;;;;;;;;;;22.90;55.94;100427.09;2247938;79;50702;-75
2022/09/09 05:43:53;;;;;;;;;;;;;;;22.91;56.26;100421.98;2223309;79;50915;-76
2022/09/09 05:46:55;;;;;;;;;;;;;;;22.98;55.59;100416.06;2247844;79;51191;-76
2022/09/09 05:49:56;;;;;;;;;;;;;;;23.12;55.29;100426.23;2248878;79;49878;-76
2022/09/09 05:52:58;;;;;;;;;;;;;;;23.18;55.28;100433.47;2236699;79;50400;-76
2022/09/09 05:56:03;;;;;;;;;;;;;;;23.21;55.35;100437.89;2223710;79;51097;-76
2022/09/09 05:59:05;;;;;;;;;;;;;;;23.20;55.60;100441.66;2248812;78;22892;-76
2022/09/09 06:02:08;;;;;;;;;;;;;;;23.23;55.72;100434.45;2248991;79;50642;-76
2022/09/09 06:05:10;;;;;;;;;;;;;;;23.25;55.73;100438.30;2244345;78;51477;-76
2022/09/09 06:08:12;;;;;;;;;;;;;;;23.28;55.72;100441.91;2210779;80;50697;-76
2022/09/09 06:11:15;;;;;;;;;;;;;;;23.31;55.79;100452.79;2212592;78;51577;-76
2022/09/09 06:14:17;;;;;;;;;;;;;;;23.33;55.74;100446.66;2246870;78;51555;-77
2022/09/09 06:17:19;;;;;;;;;;;;;;;23.37;55.65;100453.25;2222558;78;50307;-76
2022/09/09 06:20:21;;;;;;;;;;;;;;;23.40;55.51;100450.11;2217726;77;49541;-76
2022/09/09 06:23:23;;;;;;;;;;;;;;;23.43;55.50;100453.74;2288442;77;51500;-76
2022/09/09 06:26:32;;;;;;;;;;;;;;;23.45;55.47;100450.27;2259850;78;51521;-76
2022/09/09 06:29:34;;;;;;;;;;;;;;;23.44;55.57;100460.78;2286185;78;50452;-77
2022/09/09 06:32:37;;;;;;;;;;;;;;;23.42;55.75;100456.12;2235740;78;51254;-79
2022/09/09 06:35:39;;;;;;;;;;;;;;;23.41;55.64;100453.95;2287113;76;51476;-77
2022/09/09 06:38:41;;;;;;;;;;;;;;;23.36;55.94;100459.70;2259846;78;52383;-77
2022/09/09 06:41:43;;;;;;;;;;;;;;;23.36;55.77;100466.46;2287349;78;49980;-78
2022/09/09 06:44:45;;;;;;;;;;;;;;;23.29;55.59;100462.97;2261332;78;52546;-76
2022/09/09 06:47:46;;;;;;;;;;;;;;;23.33;55.18;100471.77;2261714;78;50948;-77
2022/09/09 06:50:49;;;;;;;;;;;;;;;23.32;54.82;100469.28;2278656;77;51566;-77
2022/09/09 06:53:51;;;;;;;;;;;;;;;23.26;54.87;100470.46;2287438;76;50301;-77
2022/09/09 06:56:53;;;;;;;;;;;;;;;23.36;54.64;100466.46;2261454;78;51083;-77
2022/09/09 06:59:55;;;;;;;;;;;;;;;23.36;54.89;100467.28;2287378;78;51509;-77
2022/09/09 07:02:56;;;;;;;;;;;;;;;23.41;54.84;100467.98;2259988;78;51828;-77
2022/09/09 07:05:59;;;;;;;;;;;;;;;23.42;54.87;100462.87;2261694;77;50329;-76
2022/09/09 07:09:01;;;;;;;;;;;;;;;23.44;54.84;100462.95;2256750;77;53002;-77
2022/09/09 07:12:05;;;;;;;;;;;;;;;23.50;54.75;100465.30;2269930;77;49779;-77
2022/09/09 07:15:06;;;;;;;;;;;;;;;23.51;54.71;100472.36;2270655;77;22461;-76
2022/09/09 07:18:10;;;;;;;;;;;;;;;23.55;54.69;100475.44;2294758;77;50344;-76
2022/09/09 07:21:15;;;;;;;;;;;;;;;23.51;54.68;100468.84;2295391;77;24971;-76
2022/09/09 07:24:15;;;;;;;;;;;;;;;23.53;54.63;100467.58;2269395;76;22531;-77
2022/09/09 07:27:17;;;;;;;;;;;;;;;23.54;54.63;100475.15;2295280;77;49981;-76
2022/09/09 07:30:19;;;;;;;;;;;;;;;23.47;54.69;100471.14;2270084;77;50123;-76
2022/09/09 07:33:21;;;;;;;;;;;;;;;23.51;54.69;100472.89;2245627;77;51023;-76
2022/09/09 07:36:29;;;;;;;;;;;;;;;23.51;54.69;100478.30;2265346;77;51447;-76
2022/09/09 07:39:30;;;;;;;;;;;;;;;23.52;54.65;100476.70;2275000;77;51452;-76
2022/09/09 07:42:33;;;;;;;;;;;;;;;23.55;54.58;100474.91;2279191;78;51536;-76
2022/09/09 07:45:35;;;;;;;;;;;;;;;23.59;54.53;100480.72;2236141;78;50291;-76
2022/09/09 07:48:37;;;;;;;;;;;;;;;23.58;54.53;100482.59;2250177;79;51497;-76
2022/09/09 07:51:39;;;;;;;;;;;;;;;23.58;54.53;100478.55;2248201;79;50357;-76
2022/09/09 07:54:41;;;;;;;;;;;;;;;23.59;54.50;100478.84;2250082;78;50620;-76
2022/09/09 07:57:43;;;;;;;;;;;;;;;23.59;54.51;100484.77;2223771;79;49807;-77
2022/09/09 08:00:44;;;;;;;;;;;;;;;23.57;54.54;100484.98;2248118;79;50290;-76
2022/09/09 08:03:46;;;;;;;;;;;;;;;23.58;54.51;100488.00;2250018;78;50261;-77
2022/09/09 08:06:49;;;;;;;;;;;;;;;23.59;54.52;100492.88;2265363;77;51469;-76
2022/09/09 08:09:50;;;;;;;;;;;;;;;23.59;54.51;100493.70;2270596;77;50032;-76
2022/09/09 08:12:52;;;;;;;;;;;;;;;23.60;54.52;100487.23;2265939;77;50249;-76
2022/09/09 08:15:54;;;;;;;;;;;;;;;23.57;54.59;100504.41;2265605;77;50303;-76
2022/09/09 08:18:55;;;;;;;;;;;;;;;23.51;54.69;100504.77;2266046;77;50760;-76
2022/09/09 08:21:57;;;;;;;;;;;;;;;23.44;54.73;100504.81;2266897;77;50903;-76
2022/09/09 08:24:58;;;;;;;;;;;;;;;23.42;54.78;100500.67;2265989;77;50689;-76
2022/09/09 08:28:00;;;;;;;;;;;;;;;23.41;54.77;100503.08;2266315;77;51277;-77
2022/09/09 08:31:09;;;;;;;;;;;;;;;23.38;54.82;100504.87;2266457;77;51536;-76
2022/09/09 08:34:10;;;;;;;;;;;;;;;23.37;54.82;100495.92;2241233;76;49674;-77
2022/09/09 08:37:12;;;;;;;;;;;;;;;23.36;54.78;100501.56;2253184;77;50700;-77
2022/09/09 08:40:15;;;;;;;;;;;;;;;23.35;54.83;100499.89;2261084;78;51366;-77
2022/09/09 08:43:17;;;;;;;;;;;;;;;23.34;54.82;100503.64;2287607;76;50387;-77
2022/09/09 08:46:24;;;;;;;;;;;;;;;23.31;54.85;100489.23;2261943;77;50952;-77
2022/09/09 08:49:27;;;;;;;;;;;;;;;23.30;54.85;100501.06;2287278;76;51351;-77
2022/09/09 08:52:30;;;;;;;;;;;;;;;23.29;54.86;100503.47;2285974;78;50739;-77
2022/09/09 08:55:45;;;;;;;;;;;;;;;23.28;54.85;100502.65;2287188;76;51564;-77
2022/09/09 08:58:49;;;;;;;;;;;;;;;23.30;54.77;100510.02;2261473;78;50945;-77
2022/09/09 09:01:52;;;;;;;;;;;;;;;23.26;54.86;100501.50;2286345;78;51573;-76
2022/09/09 09:04:55;;;;;;;;;;;;;;;23.26;54.82;100502.03;2267701;76;51618;-77
2022/09/09 09:07:58;;;;;;;;;;;;;;;23.27;54.81;100509.08;2265645;78;52401;-78
2022/09/09 09:11:01;;;;;;;;;;;;;;;23.26;54.81;100502.86;2237386;78;52472;-77
2022/09/09 09:14:04;;;;;;;;;;;;;;;23.28;54.76;100505.34;2260431;77;50261;-77
2022/09/09 09:17:07;;;;;;;;;;;;;;;23.34;54.68;100505.00;2260648;78;50717;-77
2022/09/09 09:20:11;;;;;;;;;;;;;;;23.33;54.69;100511.45;2260630;78;50316;-77
2022/09/09 09:23:15;;;;;;;;;;;;;;;23.32;54.72;100511.13;2237329;78;52497;-77
2022/09/09 09:26:16;;;;;;;;;;;;;;;23.33;54.66;100508.22;2260380;77;50815;-77
2022/09/09 09:29:19;;;;;;;;;;;;;;;23.34;54.62;100506.34;2260579;78;50597;-77
2022/09/09 09:32:21;;;;;;;;;;;;;;;23.33;54.67;100506.05;2260531;78;51551;-77
2022/09/09 09:35:23;;;;;;;;;;;;;;;23.30;54.67;100507.81;2235108;78;50951;-77
2022/09/09 09:38:26;;;;;;;;;;;;;;;23.28;54.75;100500.48;2274246;78;50713;-77
2022/09/09 09:41:32;;;;;;;;;;;;;;;23.22;54.86;100501.66;2274994;78;50747;-77
2022/09/09 09:44:37;;;;;;;;;;;;;;;23.25;54.76;100501.21;2286118;76;50366;-76
2022/09/09 09:47:37;;;;;;;;;;;;;;;23.20;54.92;100501.03;2287486;78;22485;-76
2022/09/09 09:50:57;;;;;;;;;;;;;;;23.17;54.93;100498.78;2259955;78;51458;-77
2022/09/09 09:54:18;;;;;;;;;;;;;;;23.20;54.88;100501.56;2287397;76;50354;-78
2022/09/09 09:57:21;;;;;;;;;;;;;;;23.18;54.89;100505.81;2287588;78;51468;-77
2022/09/09 10:00:23;;;;;;;;;;;;;;;23.18;54.88;100499.07;2261685;78;50952;-77
2022/09/09 10:03:26;;;;;;;;;;;;;;;23.23;54.70;100500.59;2260225;78;50045;-77
2022/09/09 10:06:35;;;;;;;;;;;;;;;23.18;54.82;100501.77;2282380;78;50092;-77
2022/09/09 10:09:36;;;;;;;;;;;;;;;23.18;54.78;100497.72;2260915;78;50668;-77
2022/09/09 10:12:40;;;;;;;;;;;;;;;23.17;54.82;100504.17;2233467;78;50888;-77
2022/09/09 10:15:50;;;;;;;;;;;;;;;23.20;54.80;100513.71;2255561;78;51481;-77
2022/09/09 10:18:56;;;;;;;;;;;;;;;23.19;54.83;100509.34;2250945;79;50808;-77
2022/09/09 10:22:14;;;;;;;;;;;;;;;23.21;54.77;100502.68;2250397;77;50219;-78
2022/09/09 10:25:18;;;;;;;;;;;;;;;23.18;54.83;100501.77;2250318;78;50451;-77
2022/09/09 10:28:24;;;;;;;;;;;;;;;23.19;54.81;100506.11;2250699;79;51448;-77
2022/09/09 10:31:27;;;;;;;;;;;;;;;23.20;54.75;100515.88;2251615;79;51543;-77
2022/09/09 10:34:35;;;;;;;;;;;;;;;23.20;54.80;100512.36;2252204;78;51480;-77
2022/09/09 10:37:47;;;;;;;;;;;;;;;23.17;54.86;100510.92;2250721;77;51024;-77
2022/09/09 10:40:55;;;;;;;;;;;;;;;23.19;54.83;100509.34;2293783;77;50923;-77
2022/09/09 10:44:02;;;;;;;;;;;;;;;23.19;54.77;100515.56;2282688;76;51692;-77
2022/09/09 10:47:08;;;;;;;;;;;;;;;23.17;54.82;100513.62;2298548;77;50673;-77
2022/09/09 10:50:20;;;;;;;;;;;;;;;23.17;54.87;100508.72;2273788;77;52076;-77
2022/09/09 10:53:23;;;;;;;;;;;;;;;23.14;54.94;100511.33;2298047;77;50282;-77
2022/09/09 10:56:26;;;;;;;;;;;;;;;23.14;54.95;100516.73;2296378;77;51551;-77
2022/09/09 10:59:29;;;;;;;;;;;;;;;23.17;54.86;100508.72;2296192;77;51499;-77
2022/09/09 11:02:31;;;;;;;;;;;;;;;23.17;54.83;100506.02;2270930;77;52740;-77
2022/09/09 11:05:39;;;;;;;;;;;;;;;23.15;54.91;100514.88;2261664;77;50091;-76
2022/09/09 11:08:41;;;;;;;;;;;;;;;23.15;54.91;100508.95;2232467;79;24388;-76
2022/09/09 11:11:44;;;;;;;;;;;;;;;23.15;54.93;100501.39;2213092;80;50433;-76
2022/09/09 11:14:53;;;;;;;;;;;;;;;23.11;55.00;100503.67;2188923;80;49354;-77
2022/09/09 11:17:57;;;;;;;;;;;;;;;23.15;54.94;100502.73;2212862;80;50513;-76
2022/09/09 11:20:59;;;;;;;;;;;;;;;23.19;54.78;100502.06;2213545;80;50753;-76
2022/09/09 11:24:04;;;;;;;;;;;;;;;23.16;54.89;100502.50;2214874;79;50684;-76
2022/09/09 11:27:11;;;;;;;;;;;;;;;23.19;54.85;100497.20;2190503;80;50371;-78
2022/09/09 11:30:17;;;;;;;;;;;;;;;23.19;54.79;100500.72;2212543;80;51654;-77
2022/09/09 11:33:21;;;;;;;;;;;;;;;23.17;54.91;100503.33;2212282;80;50353;-76
2022/09/09 11:36:34;;;;;;;;;;;;;;;23.18;54.84;100505.81;2224207;78;51450;-77
2022/09/09 11:39:54;;;;;;;;;;;;;;;23.18;54.86;100500.95;2219670;79;49644;-77
2022/09/09 11:43:03;;;;;;;;;;;;;;;23.19;54.84;100498.02;2248666;78;52471;-76
2022/09/09 11:46:05;;;;;;;;;;;;;;;23.17;54.89;100496.58;2248454;78;51602;-76
2022/09/09 11:49:07;;;;;;;;;;;;;;;23.17;54.93;100492.53;2248609;79;50357;-76
2022/09/09 11:52:26;;;;;;;;;;;;;;;23.15;54.98;100490.06;2223651;79;51091;-77
2022/09/09 11:55:33;;;;;;;;;;;;;;;23.14;55.03;100489.73;2248406;78;50424;-76
2022/09/09 11:58:34;;;;;;;;;;;;;;;23.11;55.08;100486.13;2248448;79;22339;-76
2022/09/09 12:01:36;;;;;;;;;;;;;;;23.12;55.13;100495.05;2248677;78;50286;-76
2022/09/09 12:04:39;;;;;;;;;;;;;;;23.12;55.12;100488.30;2248604;78;51642;-76
2022/09/09 12:07:43;;;;;;;;;;;;;;;23.11;55.16;100483.44;2257997;78;51572;-76
2022/09/09 12:10:47;;;;;;;;;;;;;;;23.14;55.11;100484.34;2286915;77;50684;-76
2022/09/09 12:13:56;;;;;;;;;;;;;;;23.16;55.06;100486.31;2285543;76;50526;-77
2022/09/09 12:16:58;;;;;;;;;;;;;;;23.16;55.07;100474.16;2259943;78;50145;-77
2022/09/09 12:20:13;;;;;;;;;;;;;;;23.17;55.04;100466.39;2259476;78;50242;-77
2022/09/09 12:23:32;;;;;;;;;;;;;;;23.19;54.97;100463.45;2287067;77;51544;-77
2022/09/09 12:26:35;;;;;;;;;;;;;;;23.18;55.03;100459.93;2251070;78;50670;-77
2022/09/09 12:29:54;;;;;;;;;;;;;;;23.18;55.00;100465.86;2247124;79;50809;-77
2022/09/09 12:33:02;;;;;;;;;;;;;;;23.19;54.97;100460.22;2211871;79;51724;-77
2022/09/09 12:36:04;;;;;;;;;;;;;;;23.16;55.09;100456.62;2224642;79;50390;-78
2022/09/09 12:39:20;;;;;;;;;;;;;;;23.17;54.88;100459.64;2237231;78;51450;-78
2022/09/09 12:42:21;;;;;;;;;;;;;;;23.14;54.86;100449.78;2224630;78;52778;-78
2022/09/09 12:45:25;;;;;;;;;;;;;;;23.13;54.93;100451.66;2274044;76;52786;-78
2022/09/09 12:48:29;;;;;;;;;;;;;;;23.14;54.94;100449.78;2249487;77;50113;-78
2022/09/09 12:51:31;;;;;;;;;;;;;;;23.10;54.95;100444.00;2249186;77;50625;-78
2022/09/09 12:54:37;;;;;;;;;;;;;;;23.10;54.97;100453.98;2274357;76;50104;-78
2022/09/09 12:57:38;;;;;;;;;;;;;;;23.12;54.97;100449.16;2249223;79;50704;-78
2022/09/09 13:00:42;;;;;;;;;;;;;;;23.11;55.03;100450.23;2249432;79;50748;-78
2022/09/09 13:03:45;;;;;;;;;;;;;;;23.11;55.03;100447.52;2250171;78;51553;-78
2022/09/09 13:06:47;;;;;;;;;;;;;;;23.12;54.96;100451.87;2224307;79;51060;-78
2022/09/09 13:09:48;;;;;;;;;;;;;;;23.11;55.00;100465.89;2274554;78;51804;-78
2022/09/09 13:12:50;;;;;;;;;;;;;;;23.11;55.01;100457.80;2249923;78;50824;-79
2022/09/09 13:15:53;;;;;;;;;;;;;;;23.11;54.91;100465.89;2249605;78;51585;-78
2022/09/09 13:18:55;;;;;;;;;;;;;;;23.11;54.95;100463.72;2274765;77;52548;-78
2022/09/09 13:21:57;;;;;;;;;;;;;;;23.10;55.00;100460.73;2249353;78;50862;-78
2022/09/09 13:24:59;;;;;;;;;;;;;;;23.11;54.95;100456.44;2249336;77;51542;-78
2022/09/09 13:28:04;;;;;;;;;;;;;;;23.13;54.93;100450.84;2249505;79;50439;-78
2022/09/09 13:31:07;;;;;;;;;;;;;;;23.11;54.87;100448.34;2224451;79;51020;-78
2022/09/09 13:34:14;;;;;;;;;;;;;;;23.10;54.93;100437.79;2274008;77;50757;-78
2022/09/09 13:37:27;;;;;;;;;;;;;;;23.11;54.95;100437.55;2263321;78;50496;-78
2022/09/09 13:40:30;;;;;;;;;;;;;;;23.13;54.83;100431.95;2290235;77;50306;-77
2022/09/09 13:43:33;;;;;;;;;;;;;;;23.12;54.83;100438.38;2246071;76;51042;-78
2022/09/09 13:46:42;;;;;;;;;;;;;;;23.10;54.87;100438.61;2294879;76;50697;-78
2022/09/09 13:49:43;;;;;;;;;;;;;;;23.14;54.76;100437.11;2295677;77;50777;-78
2022/09/09 13:52:45;;;;;;;;;;;;;;;23.16;54.67;100424.23;2295662;77;51533;-79
2022/09/09 13:55:47;;;;;;;;;;;;;;;23.17;54.68;100434.00;2271785;77;49664;-78
2022/09/09 13:58:48;;;;;;;;;;;;;;;23.15;54.70;100433.38;2295691;77;50673;-78
2022/09/09 14:01:52;;;;;;;;;;;;;;;23.07;54.83;100435.00;2270712;77;51590;-78
2022/09/09 14:04:55;;;;;;;;;;;;;;;23.06;54.90;100431.98;2295254;76;50800;-79
2022/09/09 14:07:57;;;;;;;;;;;;;;;23.07;54.91;100437.70;2276337;77;50489;-78
2022/09/09 14:10:59;;;;;;;;;;;;;;;23.09;54.84;100445.56;2187684;80;50400;-79
2022/09/09 14:14:00;;;;;;;;;;;;;;;23.07;54.86;100440.41;2188497;79;51572;-79
2022/09/09 14:17:03;;;;;;;;;;;;;;;23.09;54.82;100438.81;2212895;79;51518;-78
2022/09/09 14:20:09;;;;;;;;;;;;;;;23.10;54.77;100442.66;2188547;80;50968;-79
2022/09/09 14:23:09;;;;;;;;;;;;;;;23.09;54.79;100445.03;2187586;79;22446;-78
2022/09/09 14:26:11;;;;;;;;;;;;;;;23.12;54.76;100442.42;2212481;79;51625;-79
2022/09/09 14:29:13;;;;;;;;;;;;;;;23.14;54.70;100445.20;2188494;80;51443;-79
2022/09/09 14:32:14;;;;;;;;;;;;;;;23.16;54.68;100436.91;2165524;80;51124;-78
2022/09/09 14:35:18;;;;;;;;;;;;;;;23.10;54.75;100437.26;2188569;80;50310;-78
2022/09/09 14:38:19;;;;;;;;;;;;;;;23.10;54.74;100432.39;2201185;79;24960;-79
2022/09/09 14:41:22;;;;;;;;;;;;;;;23.08;54.77;100428.55;2210702;80;50524;-78
2022/09/09 14:44:24;;;;;;;;;;;;;;;23.10;54.76;100430.52;2187895;79;52942;-78
2022/09/09 14:47:26;;;;;;;;;;;;;;;23.09;54.78;100431.54;2212588;80;50352;-77
2022/09/09 14:50:28;;;;;;;;;;;;;;;23.06;54.88;100432.51;2212583;80;51546;-79
2022/09/09 14:53:30;;;;;;;;;;;;;;;23.04;54.92;100432.72;2210729;79;50674;-78
2022/09/09 14:56:34;;;;;;;;;;;;;;;23.02;54.96;100437.00;2212587;80;51623;-78
2022/09/09 14:59:35;;;;;;;;;;;;;;;23.01;54.95;100433.98;2211028;80;22443;-77
2022/09/09 15:02:36;;;;;;;;;;;;;;;23.03;54.94;100431.07;2212379;80;51698;-77
2022/09/09 15:05:38;;;;;;;;;;;;;;;23.02;54.92;100439.70;2212133;79;51502;-78
2022/09/09 15:08:40;;;;;;;;;;;;;;;23.04;54.87;100442.16;2210561;79;52876;-77
2022/09/09 15:11:43;;;;;;;;;;;;;;;23.05;54.89;100449.23;2212596;80;51604;-78
2022/09/09 15:14:45;;;;;;;;;;;;;;;23.07;54.82;100447.14;2212511;79;50689;-78
2022/09/09 15:17:47;;;;;;;;;;;;;;;23.10;54.78;100433.73;2215007;80;52998;-78
2022/09/09 15:20:48;;;;;;;;;;;;;;;23.13;54.78;100435.47;2187200;80;52221;-77
2022/09/09 15:23:51;;;;;;;;;;;;;;;23.09;54.78;100423.97;2210660;79;51537;-77
2022/09/09 15:26:53;;;;;;;;;;;;;;;23.11;54.76;100423.23;2210767;80;51488;-76
2022/09/09 15:29:56;;;;;;;;;;;;;;;23.10;54.77;100418.37;2212790;80;50350;-77
2022/09/09 15:32:58;;;;;;;;;;;;;;;23.09;54.78;100424.80;2188206;80;52681;-77
2022/09/09 15:36:00;;;;;;;;;;;;;;;23.11;54.77;100423.23;2224134;79;51604;-78
2022/09/09 15:39:01;;;;;;;;;;;;;;;23.10;54.77;100420.24;2278535;77;50792;-77
2022/09/09 15:42:03;;;;;;;;;;;;;;;23.11;54.81;100409.74;2295372;77;50366;-76